EW0364 Fairhaven MA US current weather conditions

sailwx.info

Wind from 074 at 0 knots gusting 3

Air temperature 11.1° C
Dewpoint 5.0° C

Last reported at 2020-Oct-25 20:03 UTC.
Time now 2020-Oct-26 04:47 UTC

Location: N 41°39' W 070°54'.
View on Google Maps.

See reports from other nearby stations

  
Tides and Currents Weather Stations Pressure Air Temp Water Temp Dewpoint Dewpoint Depression Visibility Wind Speed Wind Dir Waves Ship Positions
date/time (UTC)wind fromknots sea level pressurealtimeterstation pressurevisibilityair tempwater tempwave heightnotes
2020-Oct-25 20:03 074 0 gusting 3 11.1
2020-Oct-25 17:04 114 2 12.8
2020-Oct-25 16:00
2020-Oct-25 14:03
2020-Oct-25 13:00
2020-Oct-25 12:06
2020-Oct-25 11:03 342 2 gusting 5 6.1
2020-Oct-25 10:09
2020-Oct-25 10:00
2020-Oct-25 09:06 352 4 8.3
2020-Oct-25 08:03 339 2 8.3
2020-Oct-25 07:54 340 3 8.3
2020-Oct-25 07:45 344 3 8.3
2020-Oct-25 07:36 342 4 7.8
2020-Oct-25 07:27 332 4 7.8
2020-Oct-25 07:18 334 4 7.8
2020-Oct-25 07:09 335 4 7.8
2020-Oct-25 07:00 348 4 7.8
2020-Oct-25 06:51 338 4 7.8
2020-Oct-25 06:42 326 3 8.3
2020-Oct-25 06:33 338 3 7.8
2020-Oct-25 06:24 343 4 8.3
2020-Oct-25 06:15 338 2 8.3
2020-Oct-25 06:06 335 3 8.3
2020-Oct-25 05:57 348 3 8.3
2020-Oct-25 05:48 341 4 8.3
2020-Oct-25 05:39 345 4 8.3
2020-Oct-25 05:30 340 4 8.9
2020-Oct-25 05:21 349 3 8.9
2020-Oct-25 05:12 345 3 gusting 10 8.9
2020-Oct-25 05:03 347 3 gusting 9 8.9
2020-Oct-25 04:54 331 3 gusting 11 9.4
2020-Oct-25 04:45 359 4 gusting 9 9.4
2020-Oct-25 04:36 344 6 gusting 12 9.4
2020-Oct-25 04:27 340 5 gusting 13 10.0
2020-Oct-25 04:18 341 6 gusting 17 10.0
2020-Oct-25 04:09 343 5 gusting 13 10.6
2020-Oct-25 04:00 351 4 gusting 13 11.1
2020-Oct-25 03:51 348 4 gusting 13 11.7
2020-Oct-25 03:42 345 3 gusting 10 11.7
2020-Oct-25 03:33 358 6 gusting 14 12.2
2020-Oct-25 03:24 357 5 gusting 14 12.8
2020-Oct-25 03:15 339 6 gusting 16 12.8
2020-Oct-25 03:06 345 5 gusting 13 13.3
2020-Oct-25 02:57 334 4 gusting 13 13.3
2020-Oct-25 02:48 330 3 gusting 9 13.9
2020-Oct-25 02:39 332 4 gusting 10 13.9
2020-Oct-25 02:30 329 4 gusting 10 13.9
2020-Oct-25 02:21 348 3 gusting 9 14.4
2020-Oct-25 02:12 352 4 gusting 10 14.4
2020-Oct-25 02:03 349 4 gusting 16 14.4
2020-Oct-25 01:54 352 4 gusting 12 15.0
2020-Oct-25 01:45 007 5 gusting 13 15.0
2020-Oct-25 01:36 352 5 gusting 13 15.6
2020-Oct-25 01:27 346 6 gusting 18 16.1
2020-Oct-25 01:18 354 5 gusting 13 16.7
2020-Oct-25 01:09 341 4 gusting 13 17.8
2020-Oct-25 01:00 301 2 gusting 7 17.8
2020-Oct-25 00:51 301 2 gusting 7 17.8
2020-Oct-25 00:42 304 1 gusting 6 17.8
2020-Oct-25 00:33 282 1 gusting 6 17.8
2020-Oct-25 00:24 301 1 gusting 5 17.8
2020-Oct-25 00:15 274 1 gusting 5 17.8
2020-Oct-25 00:06 271 2 gusting 6 17.8
2020-Oct-24 23:57 269 1 gusting 4 17.8
2020-Oct-24 23:48 267 0 gusting 5 17.8
2020-Oct-24 23:39 280 0 gusting 2 17.8
2020-Oct-24 23:30 280 0 gusting 2 17.8
2020-Oct-24 23:21 270 0 gusting 3 17.8
2020-Oct-24 23:12 252 0 gusting 3 17.8
2020-Oct-24 23:03 217 0 gusting 2 17.8
2020-Oct-24 22:54 234 1 gusting 2 17.8
2020-Oct-24 22:45 246 1 gusting 4 18.3
2020-Oct-24 22:36 251 1 gusting 5 18.3
2020-Oct-24 22:27 242 1 gusting 4 18.3
2020-Oct-24 22:18 238 1 gusting 4 18.3
2020-Oct-24 22:09 241 1 gusting 3 18.3
2020-Oct-24 22:00 247 1 gusting 3 18.3
2020-Oct-24 21:51 242 1 gusting 4 18.3
2020-Oct-24 21:42 253 3 gusting 7 18.3
2020-Oct-24 21:33 252 2 gusting 7 18.9
2020-Oct-24 21:24 252 3 gusting 7 18.9
2020-Oct-24 21:15 249 3 gusting 7 18.9
2020-Oct-24 21:06 263 2 gusting 6 19.4
2020-Oct-24 20:57 266 1 gusting 5 19.4
2020-Oct-24 20:48 270 3 gusting 6 19.4
2020-Oct-24 20:39 250 1 gusting 6 19.4
2020-Oct-24 20:30 261 1 gusting 4 19.4
2020-Oct-24 20:21 238 2 gusting 6 18.9
2020-Oct-24 20:12 248 2 gusting 6 18.9
2020-Oct-24 20:03 250 2 gusting 6 19.4
2020-Oct-24 19:54 253 3 gusting 7 19.4
2020-Oct-24 19:45 239 3 gusting 7 19.4
2020-Oct-24 19:36 222 2 gusting 7 19.4
2020-Oct-24 19:27 218 2 gusting 6 18.9
2020-Oct-24 19:18 217 2 gusting 6 18.9
2020-Oct-24 19:09 255 3 gusting 7 18.9
2020-Oct-24 19:00 258 3 gusting 6 18.3
2020-Oct-24 18:51 252 1 gusting 5 18.3
2020-Oct-24 18:42 238 2 gusting 6 18.3
2020-Oct-24 18:33 244 2 gusting 6 18.3
2020-Oct-24 18:24 232 3 gusting 8 18.3
2020-Oct-24 18:15 246 2 gusting 6 18.3
2020-Oct-24 18:06 215 2 gusting 7 18.3
2020-Oct-24 17:57 206 1 gusting 7 18.3
2020-Oct-24 17:48 239 2 gusting 6 18.3
2020-Oct-24 17:39 240 2 gusting 6 18.3
2020-Oct-24 17:30 217 4 gusting 7 17.8
2020-Oct-24 17:21 209 3 gusting 7 17.8
2020-Oct-24 17:12 203 3 gusting 8 17.8
2020-Oct-24 17:03 201 2 gusting 8 17.8
2020-Oct-24 16:54 217 3 gusting 9 17.8
2020-Oct-24 16:45 195 3 gusting 9 17.8
2020-Oct-24 16:36 204 3 gusting 6 17.8
2020-Oct-24 16:27 215 2 gusting 10 18.3
2020-Oct-24 16:18 201 3 gusting 10 18.3
2020-Oct-24 16:09 198 2 gusting 7 18.3
2020-Oct-24 16:00 204 4 gusting 8 18.3
2020-Oct-24 15:51 212 3 gusting 7 18.9
2020-Oct-24 15:42 203 2 gusting 7 18.9
2020-Oct-24 15:33 208 3 gusting 8 18.9
2020-Oct-24 15:24 215 4 gusting 7 18.3
2020-Oct-24 15:15 174 3 gusting 7 18.9
2020-Oct-24 15:06 179 2 gusting 8 18.3
2020-Oct-24 14:57 172 3 gusting 9 17.8
2020-Oct-24 14:48 157 3 gusting 8 17.8
2020-Oct-24 14:39 172 2 gusting 7 17.8
2020-Oct-24 14:30 157 3 gusting 8 17.8
2020-Oct-24 14:21 169 4 gusting 8 17.2
2020-Oct-24 14:12 173 3 gusting 9 17.2
2020-Oct-24 14:03 177 2 gusting 6 17.2
2020-Oct-24 13:54 183 3 gusting 6 16.7
2020-Oct-24 13:45 163 3 gusting 6 16.7
2020-Oct-24 13:36 173 2 gusting 6 16.7
2020-Oct-24 13:27 164 2 gusting 4 16.7
2020-Oct-24 13:18 171 1 gusting 4 16.7
2020-Oct-24 13:09 171 1 gusting 5 16.7
2020-Oct-24 13:00 153 1 gusting 5 16.1
2020-Oct-24 12:51 168 2 gusting 6 16.1
2020-Oct-24 12:42 170 2 gusting 5 15.6
2020-Oct-24 12:33 186 1 gusting 5 15.6
2020-Oct-24 12:24 194 15.6
2020-Oct-24 12:15 15.0
2020-Oct-24 12:06 14.4
2020-Oct-24 11:57 14.4
2020-Oct-24 11:48 13.9
2020-Oct-24 11:39 14.4
2020-Oct-24 11:30 194 0 gusting 1 14.4
2020-Oct-24 11:21 194 0 gusting 1 14.4
2020-Oct-24 11:12 201 0 gusting 2 14.4
2020-Oct-24 11:03 205 14.4
2020-Oct-24 10:54 205 14.4
2020-Oct-24 10:45 242 0 gusting 3 14.4
2020-Oct-24 10:36 283 0 gusting 3 14.4
2020-Oct-24 10:27 286 1 gusting 5 14.4
2020-Oct-24 10:18 262 0 gusting 2 14.4
2020-Oct-24 10:09 268 0 gusting 3 14.4
2020-Oct-24 10:00 276 14.4
2020-Oct-24 09:51 276 14.4
2020-Oct-24 09:42 276 14.4
2020-Oct-24 09:33 276 0 gusting 1 14.4
2020-Oct-24 09:24 276 0 gusting 2 14.4
2020-Oct-24 09:15 276 0 gusting 1 14.4
2020-Oct-24 09:06 276 1 gusting 2 14.4
2020-Oct-24 08:57 272 0 gusting 3 14.4
2020-Oct-24 08:48 14.4
2020-Oct-24 08:39 14.4
2020-Oct-24 08:30 14.4
2020-Oct-24 08:21 14.4
2020-Oct-24 08:12 14.4
2020-Oct-24 08:03 14.4
2020-Oct-24 07:54 14.4
2020-Oct-24 07:45 14.4
2020-Oct-24 07:36 14.4
2020-Oct-24 07:27 14.4
2020-Oct-24 07:18 229 14.4
2020-Oct-24 07:09 230 14.4
2020-Oct-24 07:00 229 14.4
2020-Oct-24 06:51 230 0 gusting 2 14.4
2020-Oct-24 06:42 227 0 gusting 4 14.4
2020-Oct-24 06:33 135 14.4
2020-Oct-24 06:24 14.4
2020-Oct-24 06:15 14.4
2020-Oct-24 06:06 14.4
2020-Oct-24 05:57 14.4
2020-Oct-24 05:48 14.4
2020-Oct-24 05:39 14.4
2020-Oct-24 05:30 14.4
2020-Oct-24 05:21 14.4
2020-Oct-24 05:12 14.4
2020-Oct-24 05:03 13.9
2020-Oct-24 04:54 13.9
2020-Oct-24 04:45 14.4
2020-Oct-24 04:36 13.9
2020-Oct-24 04:27 13.9
2020-Oct-24 04:18 13.9
2020-Oct-24 04:09 13.9
2020-Oct-24 04:00 13.9